Time;durP1;ratioP1;P1;durP2;ratioP2;P2;SDS_P1;SDS_P2;PMS_P1;PMS_P2;Temp;Humidity;BMP_temperature;BMP_pressure;BME280_temperature;BME280_humidity;BME280_pressure;Samples;Min_cycle;Max_cycle;Signal;HPM_P1;HPM_P2
2024/01/10 00:01:27;;;;;;;10.30;3.50;;;;;;;-2.67;52.31;101620.90;105456;1259;60575;-55
2024/01/10 00:03:55;;;;;;;9.60;2.90;;;;;;;-2.73;52.34;101607.72;105972;1252;60503;-55
2024/01/10 00:06:23;;;;;;;9.50;2.80;;;;;;;-2.78;52.46;101611.69;105517;1251;72611;-55
2024/01/10 00:08:51;;;;;;;10.00;3.80;;;;;;;-2.87;52.58;101608.46;105953;1254;70030;-55
2024/01/10 00:11:19;;;;;;;7.60;3.30;;;;;;;-2.93;52.64;101606.09;105510;1256;72611;-55
2024/01/10 00:13:46;;;;;;;7.00;3.00;;;;;;;-2.99;52.76;101600.97;105499;1256;60565;-55
2024/01/10 00:16:14;;;;;;;5.90;2.10;;;;;;;-2.99;52.75;101602.86;105445;1257;62706;-56
2024/01/10 00:18:42;;;;;;;6.30;1.70;;;;;;;-2.91;52.65;101606.93;105624;1254;72857;-56
2024/01/10 00:21:10;;;;;;;7.80;3.30;;;;;;;-2.84;52.57;101601.58;105516;1256;70282;-55
2024/01/10 00:23:38;;;;;;;5.80;2.30;;;;;;;-2.80;52.65;101598.64;105517;1258;74135;-54
2024/01/10 00:26:05;;;;;;;6.70;2.10;;;;;;;-2.84;52.66;101597.81;105622;1257;60556;-54
2024/01/10 00:28:33;;;;;;;9.40;2.80;;;;;;;-2.91;52.76;101600.58;105777;1252;60471;-55
2024/01/10 00:31:01;;;;;;;7.20;2.50;;;;;;;-2.97;52.92;101585.34;105465;1254;71911;-55
2024/01/10 00:33:28;;;;;;;8.20;2.40;;;;;;;-3.01;53.18;101572.83;105878;1254;70547;-55
2024/01/10 00:35:56;;;;;;;8.20;3.00;;;;;;;-3.08;53.39;101570.27;105499;1257;72461;-56
2024/01/10 00:38:24;;;;;;;8.50;3.80;;;;;;;-3.12;53.54;101559.66;106076;1254;60555;-58
2024/01/10 00:40:51;;;;;;;8.80;2.30;;;;;;;-3.20;53.80;101563.96;106144;1252;61792;-58
2024/01/10 00:43:19;;;;;;;7.10;2.70;;;;;;;-3.23;53.90;101567.08;105424;1255;72537;-54
2024/01/10 00:45:46;;;;;;;6.50;2.40;;;;;;;-3.24;54.10;101570.01;105659;1257;70775;-55
2024/01/10 00:48:14;;;;;;;7.30;2.60;;;;;;;-3.27;54.40;101562.29;105506;1257;71033;-55
2024/01/10 00:50:44;;;;;;;9.20;2.90;;;;;;;-3.31;54.64;101557.16;105620;1257;60418;-56
2024/01/10 00:53:11;;;;;;;7.30;2.40;;;;;;;-3.32;54.83;101558.20;105594;1257;60741;-56
2024/01/10 00:55:39;;;;;;;6.00;1.80;;;;;;;-3.28;54.94;101553.55;105517;1257;73036;-55
2024/01/10 00:58:07;;;;;;;8.90;2.20;;;;;;;-3.15;54.82;101547.13;105516;1256;69578;-55
2024/01/10 01:00:34;;;;;;;6.70;1.60;;;;;;;-3.01;54.68;101540.55;105516;1254;72636;-55
2024/01/10 01:03:02;;;;;;;7.60;2.50;;;;;;;-2.90;54.53;101548.73;105520;1257;60504;-55
2024/01/10 01:05:30;;;;;;;7.50;3.50;;;;;;;-2.90;54.74;101547.86;105897;1256;60527;-55
2024/01/10 01:07:58;;;;;;;6.60;2.10;;;;;;;-2.89;54.85;101543.23;105512;1254;73426;-56
2024/01/10 01:10:25;;;;;;;6.10;2.50;;;;;;;-2.87;55.00;101537.55;105535;1254;70283;-56
2024/01/10 01:12:53;;;;;;;6.10;1.70;;;;;;;-2.86;55.13;101544.08;105518;1254;71378;-56
2024/01/10 01:15:21;;;;;;;8.70;3.30;;;;;;;-2.85;55.11;101543.38;105518;1254;60553;-55
2024/01/10 01:17:48;;;;;;;5.40;2.20;;;;;;;-2.82;55.17;101540.44;105540;1257;60505;-55
2024/01/10 01:20:16;;;;;;;5.70;1.70;;;;;;;-2.81;55.27;101539.91;105490;1257;73909;-55
2024/01/10 01:22:44;;;;;;;7.30;2.20;;;;;;;-2.84;55.36;101540.62;105625;1259;69966;-55
2024/01/10 01:25:12;;;;;;;9.00;2.80;;;;;;;-2.88;55.60;101540.63;105448;1254;72422;-55
2024/01/10 01:27:39;;;;;;;8.40;2.50;;;;;;;-2.87;55.75;101537.21;105512;1259;60479;-55
2024/01/10 01:30:07;;;;;;;6.30;1.80;;;;;;;-2.79;55.68;101542.30;105559;1257;60664;-56
2024/01/10 01:32:35;;;;;;;3.50;1.40;;;;;;;-2.69;55.62;101542.76;105728;1255;73807;-56
2024/01/10 01:35:03;;;;;;;8.40;2.80;;;;;;;-2.58;55.56;101539.60;105787;1256;69671;-57
2024/01/10 01:37:31;;;;;;;8.20;3.20;;;;;;;-2.53;55.51;101536.29;105829;1257;72432;-56
2024/01/10 01:39:59;;;;;;;7.40;2.80;;;;;;;-2.50;55.49;101533.02;105466;1257;60443;-55
2024/01/10 01:42:26;;;;;;;7.20;2.70;;;;;;;-2.50;55.51;101524.77;105522;1258;60558;-57
2024/01/10 01:44:54;;;;;;;5.10;1.70;;;;;;;-2.55;55.55;101522.56;105540;1256;73875;-57
2024/01/10 01:47:22;;;;;;;6.20;2.40;;;;;;;-2.60;55.65;101515.03;105518;1255;69942;-57
2024/01/10 01:49:49;;;;;;;6.90;1.90;;;;;;;-2.60;55.73;101523.98;105323;1257;72580;-56
2024/01/10 01:52:17;;;;;;;5.50;1.90;;;;;;;-2.62;55.81;101518.49;105478;1254;60596;-57
2024/01/10 01:54:45;;;;;;;5.70;2.00;;;;;;;-2.65;55.93;101520.39;105439;1256;60357;-57
2024/01/10 01:57:12;;;;;;;6.70;2.20;;;;;;;-2.69;56.04;101517.16;105439;1259;73865;-56
2024/01/10 01:59:40;;;;;;;6.10;1.40;;;;;;;-2.62;56.06;101519.69;105445;1255;69076;-56
2024/01/10 02:02:08;;;;;;;8.30;2.40;;;;;;;-2.50;55.84;101515.48;105436;1257;72330;-57
2024/01/10 02:04:35;;;;;;;4.00;1.20;;;;;;;-2.39;55.93;101515.91;105492;1254;60566;-56
2024/01/10 02:07:03;;;;;;;5.90;2.10;;;;;;;-2.38;55.64;101514.19;105293;1258;61700;-57
2024/01/10 02:09:31;;;;;;;5.10;2.30;;;;;;;-2.42;55.78;101502.36;105883;1256;73807;-57
2024/01/10 02:11:58;;;;;;;7.20;3.40;;;;;;;-2.42;55.88;101498.24;105522;1251;69949;-56
2024/01/10 02:14:26;;;;;;;12.20;3.70;;;;;;;-2.43;55.87;101499.95;105517;1256;72594;-57
2024/01/10 02:16:54;;;;;;;10.20;2.90;;;;;;;-2.50;55.93;101485.24;105504;1252;60501;-56
2024/01/10 02:19:23;;;;;;;6.90;1.40;;;;;;;-2.56;56.00;101485.65;106063;1257;60424;-55
2024/01/10 02:21:51;;;;;;;6.90;2.50;;;;;;;-2.63;56.30;101478.30;106167;1252;72668;-53
2024/01/10 02:24:18;;;;;;;4.10;1.20;;;;;;;-2.69;56.52;101469.76;106288;1256;68845;-55
2024/01/10 02:26:46;;;;;;;4.40;1.80;;;;;;;-2.69;56.61;101463.73;105553;1256;72396;-54
2024/01/10 02:29:14;;;;;;;5.20;2.00;;;;;;;-2.61;56.57;101455.95;105509;1251;61629;-55
2024/01/10 02:31:41;;;;;;;7.70;2.10;;;;;;;-2.54;56.53;101458.30;105701;1256;61061;-56
2024/01/10 02:34:09;;;;;;;7.10;2.20;;;;;;;-2.49;56.62;101460.31;105631;1257;72586;-56
2024/01/10 02:36:37;;;;;;;7.60;2.00;;;;;;;-2.48;56.65;101451.55;105522;1257;68740;-56
2024/01/10 02:39:04;;;;;;;9.10;2.80;;;;;;;-2.49;56.68;101449.50;105747;1257;73022;-55
2024/01/10 02:41:32;;;;;;;7.40;2.30;;;;;;;-2.56;56.78;101444.75;105483;1254;60562;-55
2024/01/10 02:43:59;;;;;;;8.30;2.60;;;;;;;-2.62;56.92;101445.48;105806;1257;60464;-54
2024/01/10 02:46:30;;;;;;;6.80;1.70;;;;;;;-2.69;57.19;101438.50;105511;1254;73131;-55
2024/01/10 02:48:57;;;;;;;5.50;1.40;;;;;;;-2.73;57.35;101433.55;105439;1260;70039;-55
2024/01/10 02:51:26;;;;;;;7.00;2.10;;;;;;;-2.77;57.59;101437.02;106227;1257;70477;-55
2024/01/10 02:53:54;;;;;;;5.60;1.70;;;;;;;-2.77;57.69;101437.88;106096;1256;60481;-55
2024/01/10 02:56:22;;;;;;;4.50;1.50;;;;;;;-2.71;57.63;101430.95;106085;1256;60482;-56
2024/01/10 02:58:50;;;;;;;4.20;1.30;;;;;;;-2.60;57.47;101435.84;106127;1259;72929;-57
2024/01/10 03:01:17;;;;;;;4.60;1.90;;;;;;;-2.52;57.39;101428.22;105538;1257;70009;-56
2024/01/10 03:03:45;;;;;;;5.60;1.90;;;;;;;-2.53;57.38;101430.11;106266;1256;71561;-55
2024/01/10 03:06:13;;;;;;;7.10;2.60;;;;;;;-2.56;57.43;101432.03;105577;1257;60704;-55
2024/01/10 03:08:40;;;;;;;6.10;2.00;;;;;;;-2.61;57.66;101419.37;105693;1256;60543;-54
2024/01/10 03:11:08;;;;;;;5.60;2.50;;;;;;;-2.64;57.76;101420.25;105538;1254;73260;-56
2024/01/10 03:13:37;;;;;;;7.70;3.10;;;;;;;-2.67;57.78;101418.04;105805;1261;69182;-55
2024/01/10 03:16:05;;;;;;;6.10;2.80;;;;;;;-2.70;58.02;101409.98;105819;1255;71697;-56
2024/01/10 03:18:33;;;;;;;5.60;2.10;;;;;;;-2.70;58.02;101410.85;105901;1254;60532;-56
2024/01/10 03:21:01;;;;;;;6.80;2.30;;;;;;;-2.72;58.14;101407.77;105542;1255;60444;-56
2024/01/10 03:23:29;;;;;;;7.40;2.40;;;;;;;-2.65;58.08;101411.50;105805;1258;73804;-55
2024/01/10 03:25:56;;;;;;;4.60;1.60;;;;;;;-2.52;57.90;101411.55;105587;1251;69917;-55
2024/01/10 03:28:24;;;;;;;5.50;1.50;;;;;;;-2.41;57.77;101408.88;106145;1264;71533;-54
2024/01/10 03:30:52;;;;;;;4.50;1.60;;;;;;;-2.34;57.76;101410.70;105550;1255;60559;-55
2024/01/10 03:33:19;;;;;;;11.60;3.60;;;;;;;-2.37;57.75;101409.86;105566;1257;60990;-55
2024/01/10 03:35:47;;;;;;;5.40;2.50;;;;;;;-2.37;57.83;101407.64;105526;1252;73775;-55
2024/01/10 03:38:16;;;;;;;4.60;1.60;;;;;;;-2.37;57.95;101409.52;105499;1256;70003;-57
2024/01/10 03:40:44;;;;;;;8.80;2.70;;;;;;;-2.40;57.93;101400.78;105465;1260;72720;-57
2024/01/10 03:43:12;;;;;;;6.80;2.20;;;;;;;-2.40;58.06;101397.88;105523;1251;60628;-55
2024/01/10 03:45:39;;;;;;;7.40;2.50;;;;;;;-2.45;58.15;101397.73;105574;1251;61099;-55
2024/01/10 03:48:07;;;;;;;7.30;2.70;;;;;;;-2.46;58.25;101398.44;105488;1252;72780;-54
2024/01/10 03:50:35;;;;;;;5.60;1.40;;;;;;;-2.43;58.35;101393.94;105525;1266;69378;-55
2024/01/10 03:53:03;;;;;;;9.30;3.30;;;;;;;-2.34;58.23;101389.90;105743;1253;72723;-57
2024/01/10 03:55:31;;;;;;;4.60;1.60;;;;;;;-2.28;58.25;101389.30;105582;1257;60507;-56
2024/01/10 03:57:59;;;;;;;4.90;1.50;;;;;;;-2.26;58.22;101375.73;105528;1257;60527;-56
2024/01/10 04:00:26;;;;;;;10.10;2.80;;;;;;;-2.26;58.30;101380.69;105883;1254;73852;-57
2024/01/10 04:02:54;;;;;;;4.70;0.90;;;;;;;-2.24;58.45;101384.29;105373;1255;69952;-56
2024/01/10 04:05:24;;;;;;;7.60;2.50;;;;;;;-2.25;58.43;101385.34;105495;1258;72672;-57
2024/01/10 04:07:52;;;;;;;7.10;3.00;;;;;;;-2.28;58.52;101382.27;105925;1255;60632;-56
2024/01/10 04:10:20;;;;;;;5.90;2.00;;;;;;;-2.32;58.68;101388.15;105393;1254;60527;-58
2024/01/10 04:12:48;;;;;;;5.10;1.70;;;;;;;-2.34;58.72;101378.04;105468;1254;74474;-56
2024/01/10 04:15:17;;;;;;;5.30;1.30;;;;;;;-2.26;58.60;101377.61;105500;1260;70302;-56
2024/01/10 04:17:45;;;;;;;5.00;1.30;;;;;;;-2.18;58.56;101375.46;105484;1257;72394;-56
2024/01/10 04:20:12;;;;;;;4.20;1.30;;;;;;;-2.11;58.55;101374.86;105470;1254;60869;-57
2024/01/10 04:22:40;;;;;;;7.50;2.80;;;;;;;-2.05;58.56;101372.89;105510;1257;60447;-55
2024/01/10 04:25:08;;;;;;;5.70;1.40;;;;;;;-2.04;58.53;101378.20;105410;1257;72601;-56
2024/01/10 04:27:36;;;;;;;6.00;2.30;;;;;;;-2.04;58.52;101370.66;105487;1254;70003;-58
2024/01/10 04:30:04;;;;;;;4.80;1.70;;;;;;;-2.03;58.69;101375.80;105332;1254;72133;-56
2024/01/10 04:32:32;;;;;;;5.00;1.40;;;;;;;-2.06;58.59;101374.28;106561;1254;60443;-55
2024/01/10 04:35:00;;;;;;;6.50;1.80;;;;;;;-2.13;58.63;101375.40;105543;1254;60360;-56
2024/01/10 04:37:27;;;;;;;9.00;2.90;;;;;;;-2.18;58.91;101378.55;105391;1257;73801;-56
2024/01/10 04:39:55;;;;;;;6.60;2.40;;;;;;;-2.22;59.00;101375.85;105395;1260;69942;-56
2024/01/10 04:42:23;;;;;;;5.80;2.40;;;;;;;-2.21;59.12;101374.64;105964;1254;72682;-56
2024/01/10 04:44:50;;;;;;;9.50;2.40;;;;;;;-2.12;59.10;101368.33;105370;1258;60516;-56
2024/01/10 04:47:18;;;;;;;7.30;2.60;;;;;;;-2.01;58.87;101369.42;105363;1260;60539;-55
2024/01/10 04:49:46;;;;;;;7.00;2.50;;;;;;;-1.98;58.76;101360.09;105412;1254;71928;-56
2024/01/10 04:52:13;;;;;;;8.50;2.50;;;;;;;-2.00;58.79;101356.34;105457;1257;69251;-54
2024/01/10 04:54:41;;;;;;;4.20;1.40;;;;;;;-2.04;59.08;101366.02;105467;1264;71528;-56
2024/01/10 04:57:08;;;;;;;7.20;2.20;;;;;;;-2.08;59.07;101363.46;105551;1257;60635;-55
2024/01/10 04:59:36;;;;;;;5.70;3.00;;;;;;;-2.07;59.33;101364.31;105434;1251;60542;-56
2024/01/10 05:02:04;;;;;;;7.10;1.80;;;;;;;-2.04;59.45;101361.89;105760;1251;73810;-57
2024/01/10 05:04:31;;;;;;;5.40;1.60;;;;;;;-2.02;59.35;101368.04;105458;1257;68562;-58
2024/01/10 05:06:59;;;;;;;9.10;3.20;;;;;;;-1.93;59.11;101365.53;105832;1254;72402;-57
2024/01/10 05:09:27;;;;;;;6.90;2.60;;;;;;;-1.81;59.09;101362.30;105536;1251;60522;-56
2024/01/10 05:11:54;;;;;;;8.40;2.50;;;;;;;-1.77;59.03;101365.15;105525;1257;60515;-56
2024/01/10 05:14:22;;;;;;;7.10;2.20;;;;;;;-1.74;58.96;101365.46;106047;1257;73794;-56
2024/01/10 05:16:51;;;;;;;6.70;2.50;;;;;;;-1.75;58.95;101374.59;106061;1254;70118;-56
2024/01/10 05:19:19;;;;;;;7.30;2.50;;;;;;;-1.74;59.02;101378.53;106186;1252;72391;-56
2024/01/10 05:21:46;;;;;;;6.90;2.90;;;;;;;-1.72;59.06;101382.63;105293;1251;60501;-57
2024/01/10 05:24:14;;;;;;;9.40;3.30;;;;;;;-1.62;58.87;101385.26;105609;1251;60622;-56
2024/01/10 05:26:42;;;;;;;6.50;2.40;;;;;;;-1.54;58.75;101384.45;105477;1257;73459;-56
2024/01/10 05:29:09;;;;;;;8.30;2.80;;;;;;;-1.47;58.72;101397.10;105699;1251;69232;-56
2024/01/10 05:31:37;;;;;;;7.60;2.40;;;;;;;-1.47;58.61;101403.47;105433;1256;71413;-55
2024/01/10 05:34:05;;;;;;;8.70;3.80;;;;;;;-1.47;58.65;101409.48;105587;1258;60578;-56
2024/01/10 05:36:33;;;;;;;6.50;2.40;;;;;;;-1.50;58.78;101406.95;105766;1251;60543;-57
2024/01/10 05:39:02;;;;;;;8.00;2.50;;;;;;;-1.52;58.85;101409.91;105717;1251;73870;-56
2024/01/10 05:41:29;;;;;;;9.40;2.60;;;;;;;-1.49;58.83;101414.86;106039;1256;70079;-56
2024/01/10 05:43:57;;;;;;;7.90;2.10;;;;;;;-1.41;58.72;101415.60;105988;1254;72821;-54
2024/01/10 05:46:25;;;;;;;6.00;2.60;;;;;;;-1.39;58.77;101413.52;106771;1257;61470;-58
2024/01/10 05:48:53;;;;;;;11.80;3.20;;;;;;;-1.36;58.91;101418.46;106039;1258;60428;-58
2024/01/10 05:51:21;;;;;;;7.80;2.30;;;;;;;-1.35;58.85;101421.89;105505;1251;74876;-57
2024/01/10 05:53:48;;;;;;;5.80;2.30;;;;;;;-1.34;58.93;101422.91;105522;1257;68709;-57
2024/01/10 05:56:16;;;;;;;8.80;2.20;;;;;;;-1.36;58.96;101420.36;105506;1253;72725;-58
2024/01/10 05:58:44;;;;;;;5.90;2.30;;;;;;;-1.36;59.22;101421.73;105517;1255;60652;-57
2024/01/10 06:01:12;;;;;;;11.20;3.50;;;;;;;-1.28;59.04;101419.89;105654;1251;60441;-57
2024/01/10 06:03:39;;;;;;;8.70;2.90;;;;;;;-1.26;59.06;101415.91;105500;1256;74309;-57
2024/01/10 06:06:07;;;;;;;7.00;2.30;;;;;;;-1.29;59.31;101418.35;105497;1260;70745;-58
2024/01/10 06:08:35;;;;;;;7.40;2.90;;;;;;;-1.29;59.49;101417.67;105586;1256;71751;-57
2024/01/10 06:11:06;;;;;;;7.40;3.50;;;;;;;-1.31;59.48;101415.98;105515;1254;61286;-57
2024/01/10 06:13:33;;;;;;;7.60;3.60;;;;;;;-1.29;59.53;101422.84;105747;1254;60441;-57
2024/01/10 06:16:16;;;;;;;7.90;2.40;;;;;;;-1.21;59.39;101418.25;105610;1254;64884;-58
2024/01/10 06:18:44;;;;;;;9.10;3.30;;;;;;;-1.15;59.28;101415.91;105518;1257;69242;-58
2024/01/10 06:21:12;;;;;;;6.70;2.70;;;;;;;-1.12;59.42;101415.71;105692;1254;70283;-58
2024/01/10 06:23:39;;;;;;;7.80;2.90;;;;;;;-1.10;59.48;101418.09;105528;1251;60542;-57
2024/01/10 06:26:07;;;;;;;7.30;2.90;;;;;;;-1.10;59.40;101416.88;105545;1253;60344;-57
2024/01/10 06:28:35;;;;;;;11.40;5.30;;;;;;;-1.15;59.45;101417.46;105700;1254;72605;-57
2024/01/10 06:31:02;;;;;;;10.00;4.40;;;;;;;-1.22;59.60;101416.20;105425;1256;70789;-58
2024/01/10 06:33:32;;;;;;;9.70;4.30;;;;;;;-1.19;59.51;101415.80;105432;1254;72437;-56
2024/01/10 06:35:59;;;;;;;8.00;3.30;;;;;;;-1.18;59.52;101420.96;106074;1254;60448;-56
2024/01/10 06:38:27;;;;;;;9.70;3.70;;;;;;;-1.22;59.73;101421.02;105931;1255;60296;-57
2024/01/10 06:40:55;;;;;;;11.10;4.20;;;;;;;-1.26;59.90;101418.84;105495;1254;72973;-57
2024/01/10 06:43:23;;;;;;;9.90;3.40;;;;;;;-1.28;60.15;101418.17;105616;1254;70036;-57
2024/01/10 06:45:51;;;;;;;8.50;3.50;;;;;;;-1.21;59.99;101426.34;106093;1257;72293;-56
2024/01/10 06:48:19;;;;;;;8.40;3.40;;;;;;;-1.15;59.86;101424.02;105437;1254;60482;-56
2024/01/10 06:50:46;;;;;;;11.40;3.90;;;;;;;-1.10;59.90;101429.11;105487;1256;60383;-58
2024/01/10 06:53:14;;;;;;;10.70;4.50;;;;;;;-1.14;60.09;101435.02;106216;1252;72876;-58
2024/01/10 06:55:42;;;;;;;11.40;3.80;;;;;;;-1.16;60.20;101437.98;105517;1254;69173;-58
2024/01/10 06:58:09;;;;;;;11.40;4.00;;;;;;;-1.19;60.08;101441.64;105443;1254;71365;-56
2024/01/10 07:00:38;;;;;;;12.30;4.10;;;;;;;-1.14;60.11;101445.16;105529;1253;60868;-57
2024/01/10 07:03:06;;;;;;;10.50;3.90;;;;;;;-1.06;59.93;101444.20;106498;1253;60440;-57
2024/01/10 07:05:34;;;;;;;11.80;3.90;;;;;;;-1.07;59.96;101444.39;105832;1254;72591;-57
2024/01/10 07:08:03;;;;;;;8.50;3.20;;;;;;;-1.09;60.01;101448.21;105262;1257;70679;-58
2024/01/10 07:10:31;;;;;;;9.60;3.90;;;;;;;-1.08;60.00;101446.82;105793;1254;71550;-57
2024/01/10 07:12:58;;;;;;;9.30;3.50;;;;;;;-1.09;60.11;101449.23;105734;1254;60549;-56
2024/01/10 07:15:26;;;;;;;10.70;3.40;;;;;;;-1.09;59.92;101438.39;105672;1254;312295;-57
2024/01/10 07:20:05;;;;;;;11.10;4.60;;;;;;;-1.37;61.01;101439.63;102386;1297;601061;-55
2024/01/10 07:22:33;;;;;;;10.50;4.60;;;;;;;-1.03;60.13;101442.11;104696;1268;59434;-55
2024/01/10 07:25:00;;;;;;;10.30;3.90;;;;;;;-0.96;59.96;101443.37;104460;1266;60471;-56
2024/01/10 07:27:28;;;;;;;8.40;3.10;;;;;;;-0.95;59.99;101447.31;104881;1269;72030;-56
2024/01/10 07:29:57;;;;;;;13.70;5.40;;;;;;;-0.97;59.94;101440.97;104881;1266;70826;-56
2024/01/10 07:32:25;;;;;;;9.70;4.40;;;;;;;-1.03;59.82;101439.00;104449;1266;72927;-57
2024/01/10 07:34:53;;;;;;;13.10;5.30;;;;;;;-1.03;59.80;101435.38;105167;1269;241173;-56
2024/01/10 07:37:22;;;;;;;6.00;2.10;;;;;;;-0.94;59.68;101437.30;104571;1268;60101;-56
2024/01/10 07:39:50;;;;;;;12.00;5.10;;;;;;;-0.84;59.54;101438.19;105192;1268;71124;-56
2024/01/10 07:42:18;;;;;;;13.10;5.00;;;;;;;-0.80;59.56;101439.16;104743;1264;70079;-57
2024/01/10 07:44:45;;;;;;;8.30;3.40;;;;;;;-0.77;59.48;101435.31;105289;1261;72448;-57
2024/01/10 07:47:16;;;;;;;10.30;5.40;;;;;;;-0.80;59.41;101435.20;105147;1257;59792;-57
2024/01/10 07:49:43;;;;;;;9.40;4.50;;;;;;;-0.82;59.43;101430.07;105595;1256;59974;-57
2024/01/10 07:52:11;;;;;;;10.90;4.30;;;;;;;-0.85;59.35;101433.55;105478;1257;73713;-57
2024/01/10 07:54:38;;;;;;;9.80;2.90;;;;;;;-0.86;59.42;101436.48;105475;1256;70731;-57
2024/01/10 07:57:06;;;;;;;8.20;3.50;;;;;;;-0.79;59.39;101438.98;105297;1259;71940;-57
2024/01/10 07:59:34;;;;;;;8.50;3.90;;;;;;;-0.69;59.03;101435.53;105793;1256;59829;-56
2024/01/10 08:02:02;;;;;;;9.30;3.30;;;;;;;-0.61;58.84;101438.87;105737;1253;59744;-58
2024/01/10 08:04:30;;;;;;;10.40;4.00;;;;;;;-0.53;58.99;101438.89;105466;1254;75264;-58
2024/01/10 08:06:57;;;;;;;11.10;4.90;;;;;;;-0.50;58.73;101444.86;105934;1257;70442;-56
2024/01/10 08:09:25;;;;;;;10.20;4.00;;;;;;;-0.48;58.66;101439.33;105380;1254;71902;-58
2024/01/10 08:11:53;;;;;;;14.30;5.10;;;;;;;-0.49;58.55;101439.70;105312;1253;59772;-61
2024/01/10 08:14:20;;;;;;;13.90;3.90;;;;;;;-0.52;58.41;101441.13;106119;1257;59691;-62
2024/01/10 08:16:48;;;;;;;10.40;3.90;;;;;;;-0.56;58.53;101448.23;105334;1254;71743;-60
2024/01/10 08:19:16;;;;;;;10.70;3.80;;;;;;;-0.63;58.58;101441.65;105346;1259;70701;-56
2024/01/10 08:21:44;;;;;;;10.10;4.70;;;;;;;-0.73;58.58;101443.17;105502;1257;72701;-59
2024/01/10 08:24:11;;;;;;;9.60;5.70;;;;;;;-0.73;58.83;101438.70;105461;1259;60425;-60
2024/01/10 08:26:39;;;;;;;11.60;5.20;;;;;;;-0.61;58.62;101444.36;105387;1256;60164;-60
2024/01/10 08:29:06;;;;;;;15.40;6.50;;;;;;;-0.50;58.54;101454.34;105368;1257;71817;-58
2024/01/10 08:31:34;;;;;;;8.80;4.40;;;;;;;-0.40;58.38;101460.05;105306;1259;71466;-58
2024/01/10 08:34:02;;;;;;;18.00;6.00;;;;;;;-0.39;58.48;101461.58;105385;1259;70637;-58
2024/01/10 08:36:30;;;;;;;14.30;4.60;;;;;;;-0.38;58.30;101457.95;105699;1253;59785;-58
2024/01/10 08:38:58;;;;;;;11.00;4.90;;;;;;;-0.39;58.32;101461.91;105474;1257;60206;-58
2024/01/10 08:41:25;;;;;;;10.80;4.40;;;;;;;-0.41;58.15;101462.30;105421;1257;71775;-59
2024/01/10 08:43:53;;;;;;;13.10;5.20;;;;;;;-0.45;58.14;101462.38;105335;1259;71214;-59
2024/01/10 08:46:21;;;;;;;13.70;4.80;;;;;;;-0.42;58.07;101462.48;105325;1258;71443;-58
2024/01/10 08:48:48;;;;;;;16.70;7.90;;;;;;;-0.38;58.01;101455.87;105448;1259;61196;-59
2024/01/10 08:51:16;;;;;;;13.90;4.70;;;;;;;-0.36;58.03;101461.53;106217;1256;60016;-59
2024/01/10 08:53:44;;;;;;;10.50;4.50;;;;;;;-0.35;58.16;101467.55;105537;1256;71628;-59
2024/01/10 08:56:12;;;;;;;11.20;5.40;;;;;;;-0.38;58.26;101466.39;105465;1256;70809;-60
2024/01/10 08:58:39;;;;;;;9.50;4.50;;;;;;;-0.38;58.21;101468.27;105493;1258;71440;-59
2024/01/10 09:01:08;;;;;;;15.40;4.30;;;;;;;-0.44;58.21;101463.04;105372;1260;59770;-59
2024/01/10 09:03:35;;;;;;;14.00;4.30;;;;;;;-0.47;58.32;101458.43;105371;1254;59243;-58
2024/01/10 09:06:04;;;;;;;12.20;3.40;;;;;;;-0.47;58.23;101450.52;105688;1256;71221;-59
2024/01/10 09:08:39;;;;;;;13.30;5.20;;;;;;;-0.45;58.31;101448.23;105470;1258;68844;-58
2024/01/10 09:11:07;;;;;;;11.40;4.10;;;;;;;-0.37;58.27;101451.73;105527;1258;74223;-58
2024/01/10 09:13:34;;;;;;;10.40;5.20;;;;;;;-0.37;58.32;101446.88;105593;1258;59741;-58
2024/01/10 09:16:03;;;;;;;10.40;4.40;;;;;;;-0.38;58.46;101443.81;105428;1253;59573;-55
2024/01/10 09:18:30;;;;;;;16.10;5.90;;;;;;;-0.42;58.70;101445.08;105778;1259;70769;-56
2024/01/10 09:20:58;;;;;;;12.90;4.70;;;;;;;-0.45;58.82;101445.13;105485;1256;69119;-57
2024/01/10 09:23:27;;;;;;;14.70;6.00;;;;;;;-0.49;58.88;101440.03;105334;1258;73090;-57
2024/01/10 09:25:55;;;;;;;12.70;4.00;;;;;;;-0.51;58.90;101440.94;105326;1266;59759;-57
2024/01/10 09:28:23;;;;;;;14.10;5.10;;;;;;;-0.57;59.01;101437.40;105856;1257;60009;-56
2024/01/10 09:30:51;;;;;;;11.80;5.30;;;;;;;-0.56;59.16;101432.20;105916;1258;73454;-57
2024/01/10 09:33:19;;;;;;;7.90;2.60;;;;;;;-0.41;58.93;101425.77;105420;1254;70076;-57
2024/01/10 09:35:47;;;;;;;10.40;4.10;;;;;;;-0.27;58.64;101419.98;105338;1256;72443;-57
2024/01/10 09:38:15;;;;;;;13.10;5.20;;;;;;;-0.21;58.49;101418.14;105443;1259;60023;-57
2024/01/10 09:40:43;;;;;;;12.50;5.80;;;;;;;-0.18;58.58;101420.66;105488;1260;61274;-57
2024/01/10 09:43:11;;;;;;;12.50;5.70;;;;;;;-0.13;58.69;101420.41;105479;1257;72041;-57
2024/01/10 09:45:46;;;;;;;12.10;7.00;;;;;;;-0.09;58.56;101423.45;105377;1259;70441;-58
2024/01/10 09:48:15;;;;;;;11.70;5.60;;;;;;;-0.14;58.58;101420.27;105401;1258;73082;-60
2024/01/10 09:50:43;;;;;;;16.50;6.00;;;;;;;-0.19;58.64;101415.52;106262;1258;59594;-59
2024/01/10 09:53:15;;;;;;;11.80;4.70;;;;;;;-0.15;58.68;101415.10;105315;1257;59632;-59
2024/01/10 09:55:43;;;;;;;13.90;5.50;;;;;;;-0.11;58.63;101419.18;105496;1254;73493;-59
2024/01/10 09:58:10;;;;;;;8.90;4.00;;;;;;;-0.09;58.53;101419.82;105296;1259;69238;-59
2024/01/10 10:00:38;;;;;;;14.80;4.60;;;;;;;0.02;58.31;101413.92;105320;1260;73679;-56
2024/01/10 10:03:07;;;;;;;11.00;4.20;;;;;;;0.07;58.10;101413.64;105351;1257;60072;-56
2024/01/10 10:05:35;;;;;;;12.10;4.90;;;;;;;0.09;58.20;101410.34;105525;1256;59723;-57
2024/01/10 10:08:06;;;;;;;12.10;4.50;;;;;;;0.13;58.32;101410.75;105723;1254;73029;-56
2024/01/10 10:10:34;;;;;;;11.40;4.80;;;;;;;0.16;58.19;101412.08;105541;1260;72608;-56
2024/01/10 10:13:02;;;;;;;17.10;6.10;;;;;;;0.15;58.09;101412.45;105277;1260;73002;-57
2024/01/10 10:15:30;;;;;;;15.40;6.50;;;;;;;0.08;58.21;101411.20;105703;1259;59638;-61
2024/01/10 10:17:57;;;;;;;11.70;5.30;;;;;;;0.07;58.31;101414.17;105483;1254;60956;-59
2024/01/10 10:20:26;;;;;;;9.80;4.00;;;;;;;0.06;58.47;101411.26;105269;1254;71937;-59
2024/01/10 10:23:01;;;;;;;16.30;6.80;;;;;;;0.03;58.41;101415.80;105861;1260;70836;-60
2024/01/10 10:25:33;;;;;;;14.20;5.00;;;;;;;-0.01;58.47;101412.41;105668;1257;74650;-60
2024/01/10 10:28:03;;;;;;;12.20;4.50;;;;;;;0.08;58.39;101409.16;107344;1254;59689;-59
2024/01/10 10:30:32;;;;;;;8.60;3.40;;;;;;;0.19;58.33;101414.95;105881;1253;60537;-58
2024/01/10 10:33:04;;;;;;;14.60;6.10;;;;;;;0.32;58.25;101402.77;105782;1258;73144;-58
2024/01/10 10:35:32;;;;;;;11.60;5.00;;;;;;;0.38;58.10;101406.11;105754;1255;70714;-59
2024/01/10 10:38:08;;;;;;;10.90;5.40;;;;;;;0.33;57.98;101407.26;105400;1257;74943;-57
2024/01/10 10:40:36;;;;;;;16.80;5.20;;;;;;;0.27;58.06;101402.88;105557;1257;59664;-59
2024/01/10 10:43:04;;;;;;;16.40;5.70;;;;;;;0.20;58.24;101409.59;105318;1258;59622;-59
2024/01/10 10:45:32;;;;;;;12.70;6.60;;;;;;;0.09;58.43;101403.77;105681;1255;73181;-58
2024/01/10 10:48:01;;;;;;;14.10;6.00;;;;;;;0.04;58.65;101400.27;105261;1259;69407;-59
2024/01/10 10:50:34;;;;;;;14.90;5.90;;;;;;;-0.00;58.90;101396.55;105779;1257;73183;-59
2024/01/10 10:53:03;;;;;;;18.50;9.10;;;;;;;0.02;59.05;101399.09;105613;1257;59789;-56
2024/01/10 10:55:31;;;;;;;12.40;5.20;;;;;;;0.01;59.02;101405.66;105722;1257;61021;-56
2024/01/10 10:57:59;;;;;;;11.30;4.10;;;;;;;0.03;58.87;101401.65;105309;1259;71986;-59
2024/01/10 11:00:36;;;;;;;8.50;4.30;;;;;;;0.07;58.93;101396.23;105325;1259;61314;-57
2024/01/10 11:03:04;;;;;;;12.80;4.80;;;;;;;0.12;58.93;101397.33;105265;1256;73056;-57
2024/01/10 11:05:32;;;;;;;16.90;7.30;;;;;;;0.21;59.11;101403.17;106539;1257;59674;-58
2024/01/10 11:08:01;;;;;;;12.90;6.00;;;;;;;0.30;59.08;101406.98;105593;1257;60937;-58
2024/01/10 11:10:33;;;;;;;17.80;7.30;;;;;;;0.32;59.08;101410.90;105719;1257;75217;-60
2024/01/10 11:13:14;;;;;;;11.10;4.80;;;;;;;0.36;59.08;101414.09;105670;1255;69457;-61
2024/01/10 11:16:19;;;;;;;12.80;5.00;;;;;;;0.39;58.85;101415.93;105208;1259;62527;-60
2024/01/10 11:19:08;;;;;;;12.10;4.80;;;;;;;0.32;58.58;101414.17;105946;1257;59759;-60
2024/01/10 11:22:07;;;;;;;13.70;6.20;;;;;;;0.22;58.64;101409.38;105230;1255;62328;-59